Time;durP1;ratioP1;P1;durP2;ratioP2;P2;SDS_P1;SDS_P2;PMS_P1;PMS_P2;Temp;Humidity;BMP_temperature;BMP_pressure;BME280_temperature;BME280_humidity;BME280_pressure;Samples;Min_cycle;Max_cycle;Signal;HPM_P1;HPM_P2
2022/04/10 00:00:08;;;;;;;7.30;3.67;;;3.00;81.00;;;;;;5054203;28;20573;-73
2022/04/10 00:02:34;;;;;;;8.43;3.88;;;2.90;81.20;;;;;;5053859;28;20025;-73
2022/04/10 00:04:59;;;;;;;6.38;3.25;;;2.90;81.10;;;;;;5053838;28;20072;-74
2022/04/10 00:07:25;;;;;;;8.25;3.45;;;2.90;80.90;;;;;;5053965;28;20119;-74
2022/04/10 00:09:50;;;;;;;5.70;3.78;;;2.80;80.80;;;;;;5053580;28;20017;-74
2022/04/10 00:12:16;;;;;;;8.57;3.83;;;2.90;81.00;;;;;;5053970;28;20455;-74
2022/04/10 00:14:42;;;;;;;7.25;3.60;;;2.90;81.00;;;;;;5053800;28;20029;-74
2022/04/10 00:17:07;;;;;;;7.32;3.70;;;2.90;81.00;;;;;;5053521;28;20112;-73
2022/04/10 00:19:33;;;;;;;5.88;3.80;;;2.80;80.90;;;;;;5053747;28;20025;-73
2022/04/10 00:21:58;;;;;;;7.72;3.50;;;2.80;81.00;;;;;;5053295;28;20055;-73
2022/04/10 00:24:25;;;;;;;6.07;3.80;;;2.80;81.00;;;;;;5053511;28;20031;-73
2022/04/10 00:26:52;;;;;;;7.68;4.13;;;2.70;81.10;;;;;;5053168;28;20044;-73
2022/04/10 00:29:18;;;;;;;7.30;3.70;;;2.80;81.00;;;;;;5053450;28;20378;-73
2022/04/10 00:31:44;;;;;;;9.65;3.92;;;2.70;81.00;;;;;;5053289;28;20025;-73
2022/04/10 00:34:10;;;;;;;10.60;4.68;;;2.60;81.10;;;;;;5053477;28;20021;-73
2022/04/10 00:36:36;;;;;;;6.93;3.72;;;2.60;81.40;;;;;;5052807;28;20650;-74
2022/04/10 00:39:02;;;;;;;7.88;3.72;;;2.50;81.50;;;;;;5053377;28;20470;-74
2022/04/10 00:41:28;;;;;;;6.43;3.40;;;2.50;81.80;;;;;;5053157;28;20029;-74
2022/04/10 00:44:23;;;;;;;7.05;3.25;;;2.50;81.80;;;;;;5053544;28;20021;-74
2022/04/10 00:46:50;;;;;;;5.53;3.65;;;2.60;81.70;;;;;;5040332;28;20084;-74
2022/04/10 00:49:16;;;;;;;6.88;3.40;;;2.60;81.70;;;;;;5053104;28;20017;-75
2022/04/10 00:51:46;;;;;;;6.18;3.38;;;2.60;81.40;;;;;;5053328;28;20031;-74
2022/04/10 00:54:21;;;;;;;4.97;3.00;;;2.60;81.30;;;;;;5053292;28;20382;-74
2022/04/10 00:56:47;;;;;;;4.88;3.60;;;2.60;81.40;;;;;;5053292;28;20013;-73
2022/04/10 00:59:13;;;;;;;5.03;3.00;;;2.50;81.50;;;;;;5053086;28;20033;-74
2022/04/10 01:01:44;;;;;;;5.50;3.47;;;2.50;81.50;;;;;;5053327;28;20114;-74
2022/04/10 01:04:10;;;;;;;5.38;3.53;;;2.50;81.50;;;;;;5052569;28;20050;-73
2022/04/10 01:06:36;;;;;;;6.65;3.47;;;2.50;81.60;;;;;;5053023;28;20039;-73
2022/04/10 01:09:06;;;;;;;6.97;3.30;;;2.60;81.40;;;;;;5053006;28;20107;-74
2022/04/10 01:11:33;;;;;;;7.78;3.47;;;2.60;81.30;;;;;;5052906;28;20029;-74
2022/04/10 01:14:00;;;;;;;8.88;3.67;;;2.60;81.40;;;;;;5052824;28;20029;-73
2022/04/10 01:16:26;;;;;;;9.57;4.90;;;2.60;81.40;;;;;;5052566;28;20115;-73
2022/04/10 01:18:52;;;;;;;8.80;4.07;;;2.60;81.20;;;;;;5052402;28;20120;-73
2022/04/10 01:21:25;;;;;;;7.90;4.22;;;2.60;80.90;;;;;;5052343;28;20040;-74
2022/04/10 01:23:53;;;;;;;8.18;3.70;;;2.50;80.90;;;;;;5052350;28;20449;-73
2022/04/10 01:26:18;;;;;;;8.38;3.88;;;2.50;81.00;;;;;;5052646;28;20129;-73
2022/04/10 01:29:02;;;;;;;7.43;4.10;;;2.50;81.30;;;;;;5052644;28;20152;-73
2022/04/10 01:31:29;;;;;;;8.43;4.32;;;2.50;81.40;;;;;;5052380;28;20056;-73
2022/04/10 01:34:00;;;;;;;7.65;4.50;;;2.50;81.60;;;;;;5051523;28;20480;-73
2022/04/10 01:36:27;;;;;;;9.02;4.57;;;2.50;81.70;;;;;;5052069;28;20041;-74
2022/04/10 01:38:55;;;;;;;6.53;4.30;;;2.50;81.80;;;;;;5051938;28;20466;-73
2022/04/10 01:41:21;;;;;;;6.22;3.42;;;2.60;81.70;;;;;;5052136;28;20029;-74
2022/04/10 01:43:49;;;;;;;7.13;3.30;;;2.60;82.50;;;;;;5052004;28;20110;-73
2022/04/10 01:46:15;;;;;;;8.10;3.53;;;2.60;81.90;;;;;;5052318;28;20041;-73
2022/04/10 01:48:41;;;;;;;6.53;3.50;;;2.60;81.60;;;;;;5052122;28;20021;-73
2022/04/10 01:51:07;;;;;;;9.43;4.10;;;2.60;81.60;;;;;;5052012;28;20025;-74
2022/04/10 01:53:34;;;;;;;5.10;3.72;;;2.70;81.70;;;;;;5052152;28;20525;-74
2022/04/10 01:56:04;;;;;;;6.82;4.10;;;2.70;81.60;;;;;;5051950;28;20083;-73
2022/04/10 01:58:30;;;;;;;7.35;3.83;;;2.70;81.50;;;;;;5051856;28;20021;-73
2022/04/10 02:00:56;;;;;;;7.32;3.83;;;2.70;81.40;;;;;;5051840;28;20021;-73
2022/04/10 02:03:22;;;;;;;6.22;3.92;;;2.80;81.20;;;;;;5051787;28;20497;-73
2022/04/10 02:05:47;;;;;;;7.70;3.58;;;2.70;81.30;;;;;;5051612;28;20080;-73
2022/04/10 02:08:13;;;;;;;6.60;3.95;;;2.60;81.40;;;;;;5051870;28;20379;-73
2022/04/10 02:10:39;;;;;;;5.45;3.90;;;2.70;81.50;;;;;;5051760;28;20028;-73
2022/04/10 02:13:07;;;;;;;9.95;3.85;;;2.70;81.60;;;;;;5051772;28;20029;-73
2022/04/10 02:15:37;;;;;;;8.80;4.60;;;2.70;81.60;;;;;;5051516;28;20025;-73
2022/04/10 02:18:03;;;;;;;9.05;4.10;;;2.70;81.60;;;;;;5051880;28;20029;-73
2022/04/10 02:20:29;;;;;;;6.50;3.55;;;2.70;81.70;;;;;;5051920;28;20115;-74
2022/04/10 02:22:55;;;;;;;7.50;4.07;;;2.70;81.70;;;;;;5051739;28;20138;-74
2022/04/10 02:25:21;;;;;;;6.82;4.20;;;2.70;81.70;;;;;;5051618;28;20017;-73
2022/04/10 02:27:46;;;;;;;11.02;3.65;;;2.70;81.80;;;;;;5051622;28;20029;-74
2022/04/10 02:30:12;;;;;;;8.43;3.90;;;2.70;81.90;;;;;;5051884;28;20489;-74
2022/04/10 02:32:39;;;;;;;5.43;3.35;;;2.70;81.90;;;;;;5051380;28;20025;-73
2022/04/10 02:35:05;;;;;;;8.45;3.50;;;2.70;81.90;;;;;;5051876;28;20048;-73
2022/04/10 02:37:31;;;;;;;7.85;4.28;;;2.70;81.90;;;;;;5051656;28;20025;-73
2022/04/10 02:39:56;;;;;;;6.32;3.40;;;2.70;82.80;;;;;;5051933;28;20061;-73
2022/04/10 02:42:22;;;;;;;7.78;3.72;;;2.70;81.90;;;;;;5051738;28;20021;-73
2022/04/10 02:44:47;;;;;;;6.25;3.50;;;2.70;81.90;;;;;;5053482;28;20124;-74
2022/04/10 02:47:13;;;;;;;7.60;3.28;;;2.70;81.90;;;;;;5056428;28;20033;-74
2022/04/10 02:49:39;;;;;;;5.40;3.50;;;2.70;81.90;;;;;;5055816;28;20082;-73
2022/04/10 02:52:04;;;;;;;7.68;3.40;;;2.60;81.90;;;;;;5055360;28;20029;-73
2022/04/10 02:54:30;;;;;;;5.65;3.42;;;2.60;82.00;;;;;;5055424;28;20104;-74
2022/04/10 02:56:56;;;;;;;6.97;3.25;;;2.60;82.00;;;;;;5055469;28;20497;-73
2022/04/10 02:59:21;;;;;;;7.45;3.72;;;2.60;82.00;;;;;;5055140;28;20387;-73
2022/04/10 03:01:50;;;;;;;5.70;2.92;;;2.60;82.00;;;;;;5054844;28;20024;-73
2022/04/10 03:04:16;;;;;;;8.20;3.72;;;2.60;82.20;;;;;;5054973;28;20059;-73
2022/04/10 03:06:41;;;;;;;10.70;3.13;;;2.60;82.20;;;;;;5054833;28;20040;-73
2022/04/10 03:09:07;;;;;;;5.53;2.92;;;2.60;82.20;;;;;;5055246;28;20486;-73
2022/04/10 03:11:33;;;;;;;6.60;3.25;;;2.60;82.10;;;;;;5054944;28;20025;-74
2022/04/10 03:13:58;;;;;;;6.07;3.30;;;2.60;82.10;;;;;;5055168;28;20433;-73
2022/04/10 03:16:24;;;;;;;6.93;3.35;;;2.60;82.10;;;;;;5054820;28;20024;-73
2022/04/10 03:18:51;;;;;;;5.18;3.50;;;2.60;82.30;;;;;;5054548;28;20021;-74
2022/04/10 03:21:17;;;;;;;6.63;3.55;;;2.50;82.60;;;;;;5054657;28;20071;-75
2022/04/10 03:23:43;;;;;;;5.35;3.30;;;2.50;82.50;;;;;;5054649;28;20533;-76
2022/04/10 03:26:09;;;;;;;4.88;3.03;;;2.40;82.80;;;;;;5054858;28;20123;-75
2022/04/10 03:28:34;;;;;;;9.90;3.83;;;2.40;83.00;;;;;;5054729;28;20470;-74
2022/04/10 03:31:00;;;;;;;7.20;4.25;;;2.50;83.00;;;;;;5054511;28;20033;-74
2022/04/10 03:33:25;;;;;;;7.80;3.78;;;2.50;82.90;;;;;;5054510;28;20024;-74
2022/04/10 03:35:52;;;;;;;7.53;3.92;;;2.40;82.70;;;;;;5054450;28;20039;-75
2022/04/10 03:38:18;;;;;;;7.00;4.25;;;2.40;82.80;;;;;;5054513;28;20115;-76
2022/04/10 03:40:43;;;;;;;4.18;3.38;;;2.40;82.80;;;;;;5054417;28;20057;-76
2022/04/10 03:43:09;;;;;;;9.15;3.65;;;2.40;82.40;;;;;;5054201;28;20029;-75
2022/04/10 03:45:36;;;;;;;2.90;2.60;;;2.30;82.40;;;;;;5054016;28;20025;-74
2022/04/10 03:48:02;;;;;;;7.57;3.78;;;2.30;82.70;;;;;;5054184;28;20060;-74
2022/04/10 03:50:28;;;;;;;6.75;3.45;;;2.30;82.90;;;;;;5055508;28;20093;-74
2022/04/10 03:52:53;;;;;;;5.85;3.17;;;2.30;83.00;;;;;;5055507;28;20078;-74
2022/04/10 03:55:19;;;;;;;6.57;3.55;;;2.30;83.00;;;;;;5054922;28;20117;-75
2022/04/10 03:57:44;;;;;;;4.50;3.00;;;2.30;83.10;;;;;;5054720;28;20036;-76
2022/04/10 04:00:10;;;;;;;8.05;4.10;;;2.30;83.10;;;;;;5055300;28;20025;-75
2022/04/10 04:02:41;;;;;;;10.98;5.30;;;2.20;83.10;;;;;;5055277;28;20028;-75
2022/04/10 04:05:08;;;;;;;10.18;4.88;;;2.20;83.10;;;;;;5054806;28;20518;-76
2022/04/10 04:07:33;;;;;;;11.35;5.43;;;2.30;83.30;;;;;;5054687;28;20033;-75
2022/04/10 04:09:59;;;;;;;9.57;4.57;;;2.20;83.20;;;;;;5053813;28;20390;-74
2022/04/10 04:12:24;;;;;;;8.68;3.75;;;2.20;83.20;;;;;;5055080;28;20039;-75
2022/04/10 04:14:50;;;;;;;6.57;3.75;;;2.20;83.20;;;;;;5054950;28;20029;-75
2022/04/10 04:17:15;;;;;;;7.50;4.03;;;2.20;83.30;;;;;;5054937;28;20032;-74
2022/04/10 04:19:41;;;;;;;7.15;3.88;;;2.20;83.20;;;;;;5054823;28;20029;-75
2022/04/10 04:22:06;;;;;;;6.32;3.60;;;2.20;83.20;;;;;;5054902;28;20377;-75
2022/04/10 04:24:33;;;;;;;5.38;3.70;;;2.20;83.20;;;;;;5055133;28;20527;-74
2022/04/10 04:26:58;;;;;;;8.70;4.32;;;2.20;83.00;;;;;;5054644;28;20083;-75
2022/04/10 04:29:24;;;;;;;6.82;3.60;;;2.20;83.10;;;;;;5054692;28;20445;-74
2022/04/10 04:31:50;;;;;;;5.03;3.30;;;2.10;83.20;;;;;;5054773;28;20107;-73
2022/04/10 04:34:15;;;;;;;5.78;3.13;;;2.20;83.20;;;;;;5054696;28;20029;-73
2022/04/10 04:36:41;;;;;;;6.60;3.85;;;2.20;83.20;;;;;;5054446;28;20028;-74
2022/04/10 04:39:06;;;;;;;6.60;3.95;;;2.10;83.20;;;;;;5054660;28;20021;-74
2022/04/10 04:41:32;;;;;;;5.05;3.50;;;2.20;83.10;;;;;;5054458;28;20025;-74
2022/04/10 04:43:57;;;;;;;7.35;4.45;;;2.10;83.10;;;;;;5054464;28;20017;-76
2022/04/10 04:46:23;;;;;;;6.95;4.32;;;2.10;83.20;;;;;;5053044;28;20418;-76
2022/04/10 04:48:48;;;;;;;11.30;5.75;;;2.10;83.30;;;;;;5054446;28;20028;-75
2022/04/10 04:51:14;;;;;;;11.38;5.78;;;2.00;83.30;;;;;;5054366;28;20032;-76
2022/04/10 04:53:40;;;;;;;15.32;6.05;;;2.00;83.20;;;;;;5054281;28;20031;-76
2022/04/10 04:56:06;;;;;;;12.10;5.80;;;2.00;83.30;;;;;;5054389;28;20024;-77
2022/04/10 04:58:31;;;;;;;12.13;6.22;;;2.00;83.20;;;;;;5054330;28;20036;-76
2022/04/10 05:00:57;;;;;;;8.73;6.10;;;2.00;83.40;;;;;;5054151;28;20025;-76
2022/04/10 05:03:22;;;;;;;11.98;5.85;;;2.00;83.30;;;;;;5053988;28;20378;-78
2022/04/10 05:05:48;;;;;;;10.40;5.30;;;2.00;83.40;;;;;;5053851;28;20402;-76
2022/04/10 05:08:13;;;;;;;8.70;4.68;;;2.00;83.50;;;;;;5054027;28;20375;-76
2022/04/10 05:10:39;;;;;;;9.38;5.60;;;2.00;83.50;;;;;;5054059;28;20036;-75
2022/04/10 05:13:08;;;;;;;9.20;4.90;;;2.00;83.40;;;;;;5054578;28;20021;-77
2022/04/10 05:15:34;;;;;;;9.02;4.53;;;2.10;83.50;;;;;;5054038;28;20078;-76
2022/04/10 05:18:00;;;;;;;5.72;3.90;;;2.10;83.30;;;;;;5053845;28;20467;-76
2022/04/10 05:20:25;;;;;;;10.73;5.13;;;2.10;83.40;;;;;;5052499;28;20017;-76
2022/04/10 05:22:51;;;;;;;9.25;6.78;;;2.20;83.30;;;;;;5053927;28;20025;-78
2022/04/10 05:25:17;;;;;;;11.88;6.40;;;2.20;83.10;;;;;;5053729;28;20036;-77
2022/04/10 05:27:43;;;;;;;11.85;6.32;;;2.20;83.00;;;;;;5053817;28;20029;-77
2022/04/10 05:30:09;;;;;;;8.65;5.18;;;2.20;82.90;;;;;;5053781;28;20040;-78
2022/04/10 05:32:34;;;;;;;12.65;4.78;;;2.30;83.10;;;;;;5053483;28;20123;-76
2022/04/10 05:35:00;;;;;;;10.68;5.90;;;2.40;82.90;;;;;;5053597;28;20060;-77
2022/04/10 05:37:26;;;;;;;12.00;5.68;;;2.50;82.90;;;;;;5052539;28;20021;-77
2022/04/10 05:39:51;;;;;;;9.18;4.82;;;2.50;82.70;;;;;;5053518;28;20021;-77
2022/04/10 05:42:17;;;;;;;10.13;5.35;;;2.50;82.30;;;;;;5053418;28;20021;-77
2022/04/10 05:44:45;;;;;;;6.97;4.80;;;2.60;82.30;;;;;;5053512;28;20350;-78
2022/04/10 05:47:11;;;;;;;7.43;4.68;;;2.70;82.10;;;;;;5053345;28;20037;-78
2022/04/10 05:49:36;;;;;;;12.35;6.72;;;2.70;81.90;;;;;;5053161;28;20128;-76
2022/04/10 05:52:02;;;;;;;13.73;7.22;;;2.80;81.50;;;;;;5053278;28;20104;-75
2022/04/10 05:54:28;;;;;;;8.50;6.68;;;2.80;81.40;;;;;;5053143;28;20082;-76
2022/04/10 05:56:55;;;;;;;10.75;6.05;;;2.90;81.40;;;;;;5053237;28;20067;-77
2022/04/10 05:59:20;;;;;;;9.02;6.03;;;3.00;81.00;;;;;;5053104;28;20021;-77
2022/04/10 06:01:46;;;;;;;10.05;5.00;;;3.10;81.00;;;;;;5053198;28;20436;-77
2022/04/10 06:04:11;;;;;;;6.88;5.07;;;3.10;80.60;;;;;;5052931;28;20052;-76
2022/04/10 06:06:37;;;;;;;13.40;5.15;;;3.20;80.50;;;;;;5051420;28;20060;-76
2022/04/10 06:09:02;;;;;;;9.55;4.75;;;3.30;80.50;;;;;;5052931;28;20021;-76
2022/04/10 06:11:28;;;;;;;8.90;5.63;;;3.40;80.10;;;;;;5052950;28;20497;-76
2022/04/10 06:13:53;;;;;;;9.77;5.18;;;3.40;79.80;;;;;;5052936;28;20536;-75
2022/04/10 06:16:19;;;;;;;8.23;5.85;;;3.50;79.70;;;;;;5052845;28;20056;-76
2022/04/10 06:18:45;;;;;;;11.50;5.68;;;3.60;79.30;;;;;;5052358;28;20033;-76
2022/04/10 06:21:11;;;;;;;7.43;4.75;;;3.70;78.80;;;;;;5052903;28;20029;-75
2022/04/10 06:23:40;;;;;;;8.20;4.72;;;3.80;78.90;;;;;;5052786;28;20040;-74
2022/04/10 06:26:05;;;;;;;9.95;4.97;;;3.90;78.70;;;;;;5052630;28;20040;-74
2022/04/10 06:28:31;;;;;;;11.98;5.53;;;4.00;78.30;;;;;;5052736;28;20100;-75
2022/04/10 06:30:57;;;;;;;7.80;5.15;;;4.10;77.80;;;;;;5052564;28;20055;-74
2022/04/10 06:33:22;;;;;;;13.25;5.65;;;4.10;75.70;;;;;;5052682;28;20058;-74
2022/04/10 06:35:48;;;;;;;9.38;5.32;;;4.10;76.80;;;;;;5052551;28;20017;-77
2022/04/10 06:38:14;;;;;;;9.60;5.65;;;4.20;76.80;;;;;;5052722;28;20025;-76
2022/04/10 06:40:39;;;;;;;10.88;5.82;;;4.20;76.80;;;;;;5052653;28;20025;-74
2022/04/10 06:43:06;;;;;;;10.77;5.85;;;4.30;76.20;;;;;;5052709;28;20040;-76
2022/04/10 06:45:31;;;;;;;8.93;5.20;;;4.30;76.00;;;;;;5052621;28;20017;-76
2022/04/10 06:47:57;;;;;;;7.78;4.75;;;4.40;75.90;;;;;;5052630;28;20032;-76
2022/04/10 06:50:23;;;;;;;10.68;5.68;;;4.60;75.60;;;;;;5052564;28;20060;-75
2022/04/10 06:52:48;;;;;;;14.35;6.72;;;4.70;74.90;;;;;;5051301;28;20379;-74
2022/04/10 06:55:14;;;;;;;10.30;5.38;;;4.90;74.20;;;;;;5052841;28;20120;-76
2022/04/10 06:57:39;;;;;;;8.23;5.18;;;5.10;72.30;;;;;;5052587;28;20040;-76
2022/04/10 07:00:05;;;;;;;10.02;4.85;;;5.00;71.70;;;;;;5052460;28;20513;-77
2022/04/10 07:02:33;;;;;;;10.02;4.82;;;5.00;70.60;;;;;;5052402;28;20092;-77
2022/04/10 07:04:58;;;;;;;9.38;5.00;;;5.20;70.70;;;;;;5052432;28;20087;-75
2022/04/10 07:07:24;;;;;;;9.18;4.90;;;5.20;69.10;;;;;;5052384;28;20064;-73
2022/04/10 07:09:49;;;;;;;9.25;4.65;;;5.10;69.40;;;;;;5052348;28;20060;-74
2022/04/10 07:12:15;;;;;;;10.02;4.68;;;5.00;69.40;;;;;;5052557;28;20029;-76
2022/04/10 07:14:40;;;;;;;5.72;4.35;;;5.00;70.00;;;;;;5052354;28;20032;-76
2022/04/10 07:17:06;;;;;;;6.68;4.00;;;5.00;69.70;;;;;;5052282;28;20459;-75
2022/04/10 07:19:32;;;;;;;9.07;4.55;;;5.10;69.90;;;;;;5052337;28;20025;-75
2022/04/10 07:24:42;;;;;;;5.43;4.28;;;5.20;69.90;;;;;;5052673;28;20032;-74
2022/04/10 07:27:07;;;;;;;5.78;3.75;;;5.30;69.60;;;;;;5051039;28;20033;-75
2022/04/10 07:29:33;;;;;;;8.52;4.40;;;5.40;68.90;;;;;;5052194;28;20021;-75
2022/04/10 07:31:58;;;;;;;5.80;3.33;;;5.50;68.00;;;;;;5054143;28;20029;-76
2022/04/10 07:34:24;;;;;;;7.93;4.35;;;5.60;67.70;;;;;;5055872;28;20021;-75
2022/04/10 07:36:49;;;;;;;9.93;4.43;;;5.50;66.90;;;;;;5054402;28;20112;-76
2022/04/10 07:39:15;;;;;;;21.67;6.35;;;5.40;67.50;;;;;;5055897;28;20025;-75
2022/04/10 07:41:40;;;;;;;8.95;4.50;;;5.60;73.80;;;;;;5055625;28;20024;-75
2022/04/10 07:44:06;;;;;;;9.02;4.32;;;5.90;73.20;;;;;;5055783;28;20043;-74
2022/04/10 07:49:16;;;;;;;11.25;4.20;;;6.30;65.50;;;;;;5055590;28;20485;-76
2022/04/10 07:51:42;;;;;;;6.22;4.22;;;6.30;62.70;;;;;;5055681;28;20029;-75
2022/04/10 07:54:07;;;;;;;6.03;3.80;;;6.20;62.40;;;;;;5055336;28;20043;-74
2022/04/10 07:56:33;;;;;;;7.07;4.55;;;6.30;62.90;;;;;;5055352;28;20033;-74
2022/04/10 07:59:00;;;;;;;7.13;3.67;;;6.30;61.90;;;;;;5055270;28;20025;-76
2022/04/10 08:01:25;;;;;;;6.72;3.67;;;6.10;61.50;;;;;;5054274;28;20084;-74
2022/04/10 08:03:52;;;;;;;8.43;4.53;;;6.20;63.40;;;;;;5060043;28;20025;-76
2022/04/10 08:06:19;;;;;;;7.82;4.25;;;6.00;62.30;;;;;;5055933;28;20025;-78
2022/04/10 08:08:45;;;;;;;7.20;4.30;;;5.90;61.80;;;;;;5055148;28;20029;-75
2022/04/10 08:11:10;;;;;;;7.63;4.07;;;5.90;62.70;;;;;;5054995;28;20136;-75
2022/04/10 08:13:36;;;;;;;7.78;4.50;;;5.90;62.70;;;;;;5055036;28;20079;-76
2022/04/10 08:16:04;;;;;;;10.95;6.47;;;6.00;62.40;;;;;;5055152;28;20067;-75
2022/04/10 08:18:31;;;;;;;10.48;5.13;;;6.30;62.10;;;;;;5055082;28;20071;-74
2022/04/10 08:20:57;;;;;;;9.48;4.65;;;6.50;60.90;;;;;;5054973;28;20040;-76
2022/04/10 08:23:23;;;;;;;9.23;4.68;;;6.70;60.10;;;;;;5055001;28;20021;-76
2022/04/10 08:25:48;;;;;;;9.00;5.00;;;6.70;60.00;;;;;;5053653;28;20068;-75
2022/04/10 08:28:14;;;;;;;8.27;4.22;;;6.90;60.80;;;;;;5054774;28;20025;-76
2022/04/10 08:30:40;;;;;;;6.05;3.40;;;7.10;59.50;;;;;;5054924;28;20025;-75
2022/04/10 08:33:08;;;;;;;10.13;5.25;;;7.20;57.30;;;;;;5054915;28;20038;-75
2022/04/10 08:35:34;;;;;;;7.38;4.80;;;7.50;58.40;;;;;;5053611;28;20025;-75
2022/04/10 08:38:00;;;;;;;7.97;4.85;;;7.40;57.10;;;;;;5054752;28;20029;-77
2022/04/10 08:40:26;;;;;;;9.60;4.63;;;7.10;58.40;;;;;;5054633;28;20039;-75
2022/04/10 08:42:53;;;;;;;8.43;4.43;;;6.80;57.70;;;;;;5054184;28;20482;-76
2022/04/10 08:45:24;;;;;;;7.13;4.03;;;6.80;57.60;;;;;;5054558;28;20028;-75
2022/04/10 08:47:50;;;;;;;6.97;3.85;;;6.60;58.40;;;;;;5054486;28;20111;-76
2022/04/10 08:50:18;;;;;;;8.38;4.38;;;6.70;58.20;;;;;;5053113;28;20021;-76
2022/04/10 08:52:44;;;;;;;8.40;4.45;;;6.90;57.60;;;;;;5053017;28;20164;-76
2022/04/10 08:55:10;;;;;;;8.98;4.95;;;7.20;57.30;;;;;;5053149;28;20056;-74
2022/04/10 08:57:36;;;;;;;4.95;3.53;;;7.50;57.10;;;;;;5053362;28;20524;-75
2022/04/10 09:00:03;;;;;;;6.72;3.95;;;7.40;54.70;;;;;;5052922;28;20067;-77
2022/04/10 09:02:29;;;;;;;5.13;3.67;;;7.30;55.40;;;;;;5052949;28;20036;-76
2022/04/10 09:04:55;;;;;;;6.43;3.60;;;7.30;54.50;;;;;;5052855;28;20053;-76
2022/04/10 09:07:21;;;;;;;8.88;3.25;;;7.20;52.80;;;;;;5054040;28;20069;-75
2022/04/10 09:09:56;;;;;;;11.60;6.47;;;7.30;52.50;;;;;;5054084;28;20020;-74
2022/04/10 09:12:22;;;;;;;5.20;3.47;;;7.20;50.90;;;;;;5052738;28;20573;-74
2022/04/10 09:14:49;;;;;;;6.07;3.15;;;7.30;50.90;;;;;;5052629;28;20052;-75
2022/04/10 09:17:20;;;;;;;8.25;3.17;;;7.50;51.70;;;;;;5054122;28;20083;-76
2022/04/10 09:19:53;;;;;;;8.95;3.42;;;7.60;49.90;;;;;;5053917;28;20029;-76
2022/04/10 09:22:23;;;;;;;7.68;3.40;;;7.50;49.00;;;;;;5052464;28;20036;-76
2022/04/10 09:25:08;;;;;;;6.90;3.55;;;7.50;48.90;;;;;;5054026;28;20458;-74
2022/04/10 09:27:35;;;;;;;5.57;3.30;;;7.40;49.60;;;;;;5053741;28;20037;-75
2022/04/10 09:30:02;;;;;;;5.13;2.67;;;7.50;49.90;;;;;;5052618;28;20025;-75
2022/04/10 09:32:39;;;;;;;6.85;2.90;;;7.60;48.80;;;;;;5052387;28;20036;-76
2022/04/10 09:35:05;;;;;;;6.30;2.53;;;7.20;48.70;;;;;;5053419;28;20060;-75
2022/04/10 09:37:51;;;;;;;6.72;2.70;;;7.10;47.70;;;;;;5052408;28;20025;-74
2022/04/10 09:40:25;;;;;;;4.95;2.88;;;7.00;48.80;;;;;;5052316;28;20032;-75
2022/04/10 09:43:12;;;;;;;6.35;3.35;;;7.00;49.60;;;;;;5053228;28;20032;-75
2022/04/10 09:45:39;;;;;;;11.50;3.97;;;7.00;49.90;;;;;;5053362;28;20033;-74
2022/04/10 09:48:22;;;;;;;6.65;3.40;;;7.10;49.60;;;;;;5053397;28;20367;-75
2022/04/10 09:50:53;;;;;;;7.35;3.22;;;7.20;50.10;;;;;;5052101;28;20075;-76
2022/04/10 09:53:20;;;;;;;14.38;3.88;;;7.30;51.50;;;;;;5052833;28;20025;-75
2022/04/10 09:55:53;;;;;;;6.47;3.00;;;7.20;53.50;;;;;;5051857;28;20027;-75
2022/04/10 09:58:20;;;;;;;6.63;3.08;;;7.30;52.30;;;;;;5051951;28;20104;-74
2022/04/10 10:00:47;;;;;;;5.40;3.00;;;7.50;52.00;;;;;;5051746;28;20119;-74
2022/04/10 10:03:14;;;;;;;6.05;2.88;;;7.50;49.40;;;;;;5052148;28;20081;-75
2022/04/10 10:05:40;;;;;;;6.28;2.95;;;7.40;48.30;;;;;;5051431;28;20140;-76
2022/04/10 10:08:07;;;;;;;9.63;3.55;;;7.40;48.30;;;;;;5052128;28;20033;-76
2022/04/10 10:10:35;;;;;;;6.75;3.33;;;7.30;48.80;;;;;;5051928;28;20021;-75
2022/04/10 10:13:04;;;;;;;10.48;3.35;;;7.40;48.50;;;;;;5051656;28;20033;-76
2022/04/10 10:15:29;;;;;;;7.90;2.75;;;7.60;47.50;;;;;;5051633;28;20382;-82
2022/04/10 10:17:55;;;;;;;4.53;2.50;;;7.60;44.60;;;;;;5052045;28;20029;-77
2022/04/10 10:20:22;;;;;;;10.35;2.75;;;7.70;43.40;;;;;;5053044;28;20420;-75
2022/04/10 10:22:48;;;;;;;4.03;1.88;;;8.10;58.30;;;;;;5051587;28;20029;-75
2022/04/10 10:25:27;;;;;;;9.85;2.67;;;8.90;52.50;;;;;;5051716;28;20048;-76
2022/04/10 10:28:08;;;;;;;4.97;2.38;;;9.60;51.50;;;;;;5051451;28;20171;-75
2022/04/10 10:30:55;;;;;;;7.45;2.65;;;10.00;47.40;;;;;;5051889;28;20028;-75
2022/04/10 10:33:22;;;;;;;3.85;2.50;;;10.20;45.20;;;;;;5051827;28;20430;-74
2022/04/10 10:35:50;;;;;;;4.60;2.30;;;10.20;39.60;;;;;;5051400;28;20117;-76
2022/04/10 10:38:31;;;;;;;5.47;2.38;;;9.80;38.00;;;;;;5051444;28;20116;-74
2022/04/10 10:41:29;;;;;;;5.63;2.17;;;9.60;38.70;;;;;;5051543;28;20033;-74
2022/04/10 10:43:55;;;;;;;3.85;2.05;;;9.50;39.60;;;;;;5051371;28;20503;-74
2022/04/10 10:46:28;;;;;;;6.95;2.08;;;9.60;40.30;;;;;;5051369;28;20033;-73
2022/04/10 10:49:20;;;;;;;6.63;2.55;;;10.00;40.60;;;;;;5053231;28;20033;-74
2022/04/10 10:51:51;;;;;;;3.53;2.13;;;10.40;39.60;;;;;;5053261;28;20051;-74
2022/04/10 10:54:29;;;;;;;7.03;3.10;;;10.00;38.70;;;;;;5051543;28;20108;-75
2022/04/10 10:56:55;;;;;;;5.05;2.25;;;9.70;38.60;;;;;;5051864;28;20539;-75
2022/04/10 10:59:30;;;;;;;5.50;2.15;;;9.60;39.10;;;;;;5051755;28;20029;-75
2022/04/10 11:02:19;;;;;;;5.07;2.80;;;9.40;39.70;;;;;;5051385;28;20025;-75
2022/04/10 11:04:46;;;;;;;7.45;2.97;;;9.20;41.90;;;;;;5051208;28;20075;-75
2022/04/10 11:07:12;;;;;;;6.60;2.40;;;9.30;42.50;;;;;;5054824;28;20033;-74
2022/04/10 11:09:47;;;;;;;5.05;2.20;;;9.50;41.80;;;;;;5056540;28;20107;-75
2022/04/10 11:12:18;;;;;;;4.60;1.83;;;9.60;38.80;;;;;;5055311;28;20033;-79
2022/04/10 11:14:45;;;;;;;4.93;2.28;;;9.30;40.10;;;;;;5055138;28;20025;-79
2022/04/10 11:17:20;;;;;;;4.10;1.83;;;9.50;38.10;;;;;;5056264;28;20032;-84
2022/04/10 11:19:59;;;;;;;10.98;1.90;;;9.60;38.60;;;;;;5056360;28;20053;-77
2022/04/10 11:22:32;;;;;;;3.88;2.00;;;10.20;45.30;;;;;;5055257;28;20398;-76
2022/04/10 11:24:59;;;;;;;2.85;1.77;;;10.20;40.60;;;;;;5055015;28;20025;-74
2022/04/10 11:27:44;;;;;;;4.60;1.88;;;10.20;38.70;;;;;;5056276;28;20029;-74
2022/04/10 11:30:12;;;;;;;6.75;1.33;;;9.80;38.00;;;;;;5056140;28;20024;-79
2022/04/10 11:32:42;;;;;;;2.95;1.70;;;9.60;37.90;;;;;;5054476;28;20021;-76
2022/04/10 11:35:28;;;;;;;2.92;1.45;;;9.40;37.50;;;;;;5055730;28;20025;-74
2022/04/10 11:37:56;;;;;;;2.95;1.52;;;9.40;38.20;;;;;;5054540;28;20027;-74
2022/04/10 11:40:23;;;;;;;2.78;1.38;;;9.30;38.10;;;;;;5055900;28;20424;-74
2022/04/10 11:42:51;;;;;;;6.00;1.70;;;9.30;38.20;;;;;;5054124;28;20028;-74
2022/04/10 11:45:18;;;;;;;3.65;1.50;;;9.60;38.30;;;;;;5055647;28;20021;-75
2022/04/10 11:47:43;;;;;;;5.05;1.80;;;9.80;37.90;;;;;;5055593;28;20386;-75
2022/04/10 11:50:13;;;;;;;2.80;1.05;;;10.10;35.30;;;;;;5055761;28;20025;-75
2022/04/10 11:52:39;;;;;;;7.22;1.33;;;10.30;35.10;;;;;;5055554;28;20382;-74
2022/04/10 11:55:07;;;;;;;3.63;1.20;;;10.50;35.60;;;;;;5055478;28;20025;-74
2022/04/10 11:57:33;;;;;;;4.53;1.90;;;10.70;35.50;;;;;;5055451;28;20052;-74
2022/04/10 11:59:59;;;;;;;3.35;1.73;;;10.80;34.80;;;;;;5055215;28;20510;-76
2022/04/10 12:02:24;;;;;;;3.63;2.00;;;10.70;34.50;;;;;;5055284;28;20152;-73
2022/04/10 12:04:52;;;;;;;3.40;1.55;;;9.90;34.70;;;;;;5055378;28;20107;-79
2022/04/10 12:07:21;;;;;;;4.57;1.85;;;9.80;37.10;;;;;;5056615;28;20506;-84
2022/04/10 12:09:49;;;;;;;3.08;1.75;;;9.90;37.70;;;;;;5056185;28;20497;-78
2022/04/10 12:12:36;;;;;;;5.70;2.20;;;10.00;39.70;;;;;;5055547;28;20021;-77
2022/04/10 12:15:02;;;;;;;6.00;2.22;;;9.90;42.10;;;;;;5055662;28;20032;-82
2022/04/10 12:17:28;;;;;;;4.05;1.80;;;9.80;44.00;;;;;;5054297;28;20029;-79
2022/04/10 12:19:55;;;;;;;5.03;1.90;;;9.90;43.90;;;;;;5055147;28;20028;-79
2022/04/10 12:22:22;;;;;;;6.25;2.53;;;10.40;41.90;;;;;;5055264;28;20104;-81
2022/04/10 12:24:48;;;;;;;2.65;1.50;;;10.90;39.30;;;;;;5055213;28;20021;-81
2022/04/10 12:27:14;;;;;;;5.68;1.60;;;11.00;37.20;;;;;;5055074;28;20079;-81
2022/04/10 12:29:41;;;;;;;3.72;1.50;;;11.20;36.90;;;;;;5055280;28;20017;-80
2022/04/10 12:32:11;;;;;;;2.72;1.63;;;10.90;36.00;;;;;;5055346;28;20035;-82
2022/04/10 12:34:41;;;;;;;4.78;1.65;;;10.60;35.80;;;;;;5058172;28;20017;-81
2022/04/10 12:37:10;;;;;;;3.22;1.60;;;10.40;35.30;;;;;;5057172;28;20078;-82
2022/04/10 12:39:36;;;;;;;3.80;1.90;;;10.30;35.30;;;;;;5054976;28;20025;-82
2022/04/10 12:42:03;;;;;;;3.17;1.67;;;10.30;37.00;;;;;;5054641;28;20028;-82
2022/04/10 12:44:30;;;;;;;4.10;1.80;;;10.20;38.60;;;;;;5054540;28;20036;-82
2022/04/10 12:46:56;;;;;;;3.88;1.58;;;10.30;38.60;;;;;;5054463;28;20036;-83
2022/04/10 12:49:24;;;;;;;5.43;1.70;;;10.30;38.40;;;;;;5054719;28;20501;-87
2022/04/10 12:52:03;;;;;;;3.72;1.60;;;10.80;39.30;;;;;;5061059;28;20032;-83
2022/04/10 12:54:33;;;;;;;7.47;1.90;;;11.50;38.00;;;;;;5054397;28;20021;-84
2022/04/10 12:56:59;;;;;;;4.15;1.60;;;12.10;34.60;;;;;;5054134;28;20128;-83
2022/04/10 12:59:45;;;;;;;5.15;1.80;;;12.50;33.10;;;;;;5055771;28;20450;-85
2022/04/10 13:02:25;;;;;;;3.08;1.70;;;12.40;32.30;;;;;;5055828;28;20036;-82